sensor_id;sensor_type;location;lat;lon;timestamp;P1;durP1;ratioP1;P2;durP2;ratioP2
3267;SDS011;1646;52.450;13.326;2024-03-22T00:02:02;22.43;;;13.07;;
3267;SDS011;1646;52.450;13.326;2024-03-22T00:06:59;21.40;;;12.97;;
3267;SDS011;1646;52.450;13.326;2024-03-22T00:11:57;19.13;;;12.50;;
3267;SDS011;1646;52.450;13.326;2024-03-22T00:16:56;20.57;;;12.00;;
3267;SDS011;1646;52.450;13.326;2024-03-22T00:21:53;20.23;;;13.03;;
3267;SDS011;1646;52.450;13.326;2024-03-22T00:26:50;22.67;;;13.03;;
3267;SDS011;1646;52.450;13.326;2024-03-22T00:31:47;19.83;;;12.40;;
3267;SDS011;1646;52.450;13.326;2024-03-22T00:36:45;24.40;;;13.00;;
3267;SDS011;1646;52.450;13.326;2024-03-22T00:41:43;21.60;;;13.30;;
3267;SDS011;1646;52.450;13.326;2024-03-22T00:46:40;24.10;;;13.13;;
3267;SDS011;1646;52.450;13.326;2024-03-22T00:51:37;22.77;;;12.93;;
3267;SDS011;1646;52.450;13.326;2024-03-22T00:56:35;25.13;;;14.80;;
3267;SDS011;1646;52.450;13.326;2024-03-22T01:01:32;26.00;;;14.60;;
3267;SDS011;1646;52.450;13.326;2024-03-22T01:06:29;28.37;;;15.13;;
3267;SDS011;1646;52.450;13.326;2024-03-22T01:11:26;25.60;;;13.23;;
3267;SDS011;1646;52.450;13.326;2024-03-22T01:16:25;26.97;;;14.40;;
3267;SDS011;1646;52.450;13.326;2024-03-22T01:21:22;26.40;;;14.40;;
3267;SDS011;1646;52.450;13.326;2024-03-22T01:26:20;28.73;;;14.60;;
3267;SDS011;1646;52.450;13.326;2024-03-22T01:31:17;29.23;;;15.80;;
3267;SDS011;1646;52.450;13.326;2024-03-22T01:36:16;34.73;;;15.80;;
3267;SDS011;1646;52.450;13.326;2024-03-22T01:41:13;24.60;;;13.80;;
3267;SDS011;1646;52.450;13.326;2024-03-22T01:46:10;25.43;;;14.50;;
3267;SDS011;1646;52.450;13.326;2024-03-22T01:51:07;29.83;;;15.47;;
3267;SDS011;1646;52.450;13.326;2024-03-22T01:56:07;30.70;;;15.60;;
3267;SDS011;1646;52.450;13.326;2024-03-22T02:01:04;28.90;;;13.90;;
3267;SDS011;1646;52.450;13.326;2024-03-22T02:06:02;26.33;;;14.40;;
3267;SDS011;1646;52.450;13.326;2024-03-22T02:10:59;26.77;;;14.33;;
3267;SDS011;1646;52.450;13.326;2024-03-22T02:15:58;29.23;;;15.23;;
3267;SDS011;1646;52.450;13.326;2024-03-22T02:20:56;29.30;;;15.23;;
3267;SDS011;1646;52.450;13.326;2024-03-22T02:25:55;28.00;;;14.80;;
3267;SDS011;1646;52.450;13.326;2024-03-22T02:30:52;26.80;;;13.53;;
3267;SDS011;1646;52.450;13.326;2024-03-22T02:35:49;27.47;;;14.20;;
3267;SDS011;1646;52.450;13.326;2024-03-22T02:40:47;26.27;;;14.10;;
3267;SDS011;1646;52.450;13.326;2024-03-22T02:45:47;27.80;;;14.53;;
3267;SDS011;1646;52.450;13.326;2024-03-22T02:50:44;26.57;;;12.57;;
3267;SDS011;1646;52.450;13.326;2024-03-22T02:55:41;28.70;;;13.20;;
3267;SDS011;1646;52.450;13.326;2024-03-22T03:00:38;22.90;;;12.90;;
3267;SDS011;1646;52.450;13.326;2024-03-22T03:05:37;27.63;;;12.93;;
3267;SDS011;1646;52.450;13.326;2024-03-22T03:10:36;23.37;;;12.80;;
3267;SDS011;1646;52.450;13.326;2024-03-22T03:15:33;27.03;;;13.00;;
3267;SDS011;1646;52.450;13.326;2024-03-22T03:20:30;26.40;;;13.57;;
3267;SDS011;1646;52.450;13.326;2024-03-22T03:25:29;24.57;;;13.07;;
3267;SDS011;1646;52.450;13.326;2024-03-22T03:30:26;23.10;;;12.70;;
3267;SDS011;1646;52.450;13.326;2024-03-22T03:35:23;22.67;;;11.77;;
3267;SDS011;1646;52.450;13.326;2024-03-22T03:40:21;25.80;;;13.10;;
3267;SDS011;1646;52.450;13.326;2024-03-22T03:45:21;26.37;;;13.30;;
3267;SDS011;1646;52.450;13.326;2024-03-22T03:50:18;33.00;;;12.50;;
3267;SDS011;1646;52.450;13.326;2024-03-22T03:55:15;21.17;;;10.77;;
3267;SDS011;1646;52.450;13.326;2024-03-22T04:00:12;21.90;;;11.17;;
3267;SDS011;1646;52.450;13.326;2024-03-22T04:05:11;26.40;;;13.37;;
3267;SDS011;1646;52.450;13.326;2024-03-22T04:10:08;26.77;;;11.30;;
3267;SDS011;1646;52.450;13.326;2024-03-22T04:15:07;25.80;;;11.13;;
3267;SDS011;1646;52.450;13.326;2024-03-22T04:20:05;25.27;;;12.30;;
3267;SDS011;1646;52.450;13.326;2024-03-22T04:25:06;24.33;;;11.60;;
3267;SDS011;1646;52.450;13.326;2024-03-22T04:30:04;26.60;;;11.00;;
3267;SDS011;1646;52.450;13.326;2024-03-22T04:35:02;20.67;;;10.90;;
3267;SDS011;1646;52.450;13.326;2024-03-22T04:39:59;18.30;;;11.03;;
3267;SDS011;1646;52.450;13.326;2024-03-22T04:44:58;20.47;;;10.93;;
3267;SDS011;1646;52.450;13.326;2024-03-22T04:49:55;23.40;;;10.70;;
3267;SDS011;1646;52.450;13.326;2024-03-22T04:54:52;23.33;;;10.47;;
3267;SDS011;1646;52.450;13.326;2024-03-22T04:59:50;25.50;;;12.27;;
3267;SDS011;1646;52.450;13.326;2024-03-22T05:04:49;19.17;;;11.40;;
3267;SDS011;1646;52.450;13.326;2024-03-22T05:09:46;23.97;;;12.30;;
3267;SDS011;1646;52.450;13.326;2024-03-22T05:14:43;27.23;;;12.77;;
3267;SDS011;1646;52.450;13.326;2024-03-22T05:19:40;19.70;;;10.83;;
3267;SDS011;1646;52.450;13.326;2024-03-22T05:24:39;26.57;;;13.00;;
3267;SDS011;1646;52.450;13.326;2024-03-22T05:29:37;23.93;;;11.50;;
3267;SDS011;1646;52.450;13.326;2024-03-22T05:34:34;25.37;;;12.20;;
3267;SDS011;1646;52.450;13.326;2024-03-22T05:39:32;25.00;;;12.17;;
3267;SDS011;1646;52.450;13.326;2024-03-22T05:44:30;25.07;;;12.20;;
3267;SDS011;1646;52.450;13.326;2024-03-22T05:49:27;22.73;;;11.87;;
3267;SDS011;1646;52.450;13.326;2024-03-22T05:54:24;22.37;;;11.67;;
3267;SDS011;1646;52.450;13.326;2024-03-22T05:59:22;24.37;;;12.10;;
3267;SDS011;1646;52.450;13.326;2024-03-22T06:04:20;21.80;;;11.50;;
3267;SDS011;1646;52.450;13.326;2024-03-22T06:09:18;29.80;;;12.80;;
3267;SDS011;1646;52.450;13.326;2024-03-22T06:14:19;24.53;;;11.63;;
3267;SDS011;1646;52.450;13.326;2024-03-22T06:19:16;24.30;;;10.53;;
3267;SDS011;1646;52.450;13.326;2024-03-22T06:24:14;28.80;;;13.63;;
3267;SDS011;1646;52.450;13.326;2024-03-22T06:29:11;21.47;;;11.90;;
3267;SDS011;1646;52.450;13.326;2024-03-22T06:34:09;25.37;;;12.30;;
3267;SDS011;1646;52.450;13.326;2024-03-22T06:39:06;24.27;;;11.97;;
3267;SDS011;1646;52.450;13.326;2024-03-22T06:44:06;24.20;;;11.33;;
3267;SDS011;1646;52.450;13.326;2024-03-22T06:49:04;25.03;;;12.20;;
3267;SDS011;1646;52.450;13.326;2024-03-22T06:54:01;21.27;;;11.87;;
3267;SDS011;1646;52.450;13.326;2024-03-22T06:58:59;25.63;;;13.17;;
3267;SDS011;1646;52.450;13.326;2024-03-22T07:03:57;25.73;;;13.57;;
3267;SDS011;1646;52.450;13.326;2024-03-22T07:08:54;27.67;;;13.17;;
3267;SDS011;1646;52.450;13.326;2024-03-22T07:13:51;30.47;;;15.50;;
3267;SDS011;1646;52.450;13.326;2024-03-22T07:18:49;29.93;;;14.97;;
3267;SDS011;1646;52.450;13.326;2024-03-22T07:23:47;26.17;;;14.70;;
3267;SDS011;1646;52.450;13.326;2024-03-22T07:28:44;28.37;;;14.67;;
3267;SDS011;1646;52.450;13.326;2024-03-22T07:33:41;34.50;;;16.00;;
3267;SDS011;1646;52.450;13.326;2024-03-22T07:38:39;44.73;;;16.03;;
3267;SDS011;1646;52.450;13.326;2024-03-22T07:43:37;32.67;;;15.87;;
3267;SDS011;1646;52.450;13.326;2024-03-22T07:48:34;28.90;;;15.87;;
3267;SDS011;1646;52.450;13.326;2024-03-22T07:53:32;35.17;;;15.10;;
3267;SDS011;1646;52.450;13.326;2024-03-22T07:58:29;31.37;;;16.17;;
3267;SDS011;1646;52.450;13.326;2024-03-22T08:03:27;34.43;;;15.90;;
3267;SDS011;1646;52.450;13.326;2024-03-22T08:08:24;27.00;;;15.20;;
3267;SDS011;1646;52.450;13.326;2024-03-22T08:13:21;34.57;;;15.93;;
3267;SDS011;1646;52.450;13.326;2024-03-22T08:18:19;32.07;;;16.07;;
3267;SDS011;1646;52.450;13.326;2024-03-22T08:23:17;34.70;;;16.93;;
3267;SDS011;1646;52.450;13.326;2024-03-22T08:28:15;27.33;;;15.50;;
3267;SDS011;1646;52.450;13.326;2024-03-22T08:33:12;28.20;;;14.50;;
3267;SDS011;1646;52.450;13.326;2024-03-22T08:38:10;26.47;;;15.30;;
3267;SDS011;1646;52.450;13.326;2024-03-22T08:43:11;27.70;;;15.60;;
3267;SDS011;1646;52.450;13.326;2024-03-22T08:48:08;36.67;;;17.00;;
3267;SDS011;1646;52.450;13.326;2024-03-22T08:53:05;29.53;;;15.57;;
3267;SDS011;1646;52.450;13.326;2024-03-22T08:58:02;27.90;;;15.83;;
3267;SDS011;1646;52.450;13.326;2024-03-22T09:03:02;27.83;;;15.43;;
3267;SDS011;1646;52.450;13.326;2024-03-22T09:07:59;27.60;;;14.90;;
3267;SDS011;1646;52.450;13.326;2024-03-22T09:12:58;26.23;;;15.70;;
3267;SDS011;1646;52.450;13.326;2024-03-22T09:17:55;28.80;;;15.53;;
3267;SDS011;1646;52.450;13.326;2024-03-22T09:22:54;23.83;;;14.20;;
3267;SDS011;1646;52.450;13.326;2024-03-22T09:27:52;26.20;;;14.63;;
3267;SDS011;1646;52.450;13.326;2024-03-22T09:32:49;29.13;;;15.10;;
3267;SDS011;1646;52.450;13.326;2024-03-22T09:37:47;24.40;;;13.30;;
3267;SDS011;1646;52.450;13.326;2024-03-22T09:42:45;28.17;;;15.70;;
3267;SDS011;1646;52.450;13.326;2024-03-22T09:47:45;27.80;;;15.60;;
3267;SDS011;1646;52.450;13.326;2024-03-22T09:52:42;27.53;;;15.00;;
3267;SDS011;1646;52.450;13.326;2024-03-22T09:57:41;26.33;;;14.40;;
3267;SDS011;1646;52.450;13.326;2024-03-22T10:02:41;26.07;;;14.53;;
3267;SDS011;1646;52.450;13.326;2024-03-22T10:07:39;26.90;;;14.50;;
3267;SDS011;1646;52.450;13.326;2024-03-22T10:12:37;23.53;;;13.43;;
3267;SDS011;1646;52.450;13.326;2024-03-22T10:17:34;28.33;;;15.13;;
3267;SDS011;1646;52.450;13.326;2024-03-22T10:22:33;24.30;;;14.30;;
3267;SDS011;1646;52.450;13.326;2024-03-22T10:27:30;25.30;;;14.93;;
3267;SDS011;1646;52.450;13.326;2024-03-22T10:32:27;29.57;;;14.53;;
3267;SDS011;1646;52.450;13.326;2024-03-22T10:37:25;25.77;;;13.80;;
3267;SDS011;1646;52.450;13.326;2024-03-22T10:42:23;26.63;;;14.60;;
3267;SDS011;1646;52.450;13.326;2024-03-22T10:47:21;24.13;;;13.27;;
3267;SDS011;1646;52.450;13.326;2024-03-22T10:52:21;24.23;;;13.90;;
3267;SDS011;1646;52.450;13.326;2024-03-22T10:57:18;24.00;;;13.67;;
3267;SDS011;1646;52.450;13.326;2024-03-22T11:02:17;21.07;;;12.77;;
3267;SDS011;1646;52.450;13.326;2024-03-22T11:07:19;19.17;;;12.53;;
3267;SDS011;1646;52.450;13.326;2024-03-22T11:12:18;18.40;;;11.43;;
3267;SDS011;1646;52.450;13.326;2024-03-22T11:17:18;24.30;;;13.40;;
3267;SDS011;1646;52.450;13.326;2024-03-22T11:22:16;23.53;;;12.83;;
3267;SDS011;1646;52.450;13.326;2024-03-22T11:27:13;23.73;;;12.73;;
3267;SDS011;1646;52.450;13.326;2024-03-22T11:32:11;22.50;;;11.73;;
3267;SDS011;1646;52.450;13.326;2024-03-22T11:37:10;19.20;;;11.63;;
3267;SDS011;1646;52.450;13.326;2024-03-22T11:42:07;21.10;;;12.53;;
3267;SDS011;1646;52.450;13.326;2024-03-22T11:47:06;26.97;;;13.40;;
3267;SDS011;1646;52.450;13.326;2024-03-22T11:52:03;19.30;;;10.60;;
3267;SDS011;1646;52.450;13.326;2024-03-22T11:57:03;22.63;;;11.53;;
3267;SDS011;1646;52.450;13.326;2024-03-22T12:02:00;23.83;;;12.57;;
3267;SDS011;1646;52.450;13.326;2024-03-22T12:06:58;23.40;;;12.80;;
3267;SDS011;1646;52.450;13.326;2024-03-22T12:11:55;27.70;;;14.27;;
3267;SDS011;1646;52.450;13.326;2024-03-22T12:16:54;28.00;;;14.73;;
3267;SDS011;1646;52.450;13.326;2024-03-22T12:21:51;21.10;;;13.50;;
3267;SDS011;1646;52.450;13.326;2024-03-22T12:26:48;24.00;;;13.70;;
3267;SDS011;1646;52.450;13.326;2024-03-22T12:31:46;25.57;;;13.67;;
3267;SDS011;1646;52.450;13.326;2024-03-22T12:36:45;26.80;;;13.93;;
3267;SDS011;1646;52.450;13.326;2024-03-22T12:41:42;28.67;;;14.77;;
3267;SDS011;1646;52.450;13.326;2024-03-22T12:46:39;31.80;;;15.53;;
3267;SDS011;1646;52.450;13.326;2024-03-22T12:51:37;31.20;;;15.67;;
3267;SDS011;1646;52.450;13.326;2024-03-22T12:56:36;30.53;;;14.80;;
3267;SDS011;1646;52.450;13.326;2024-03-22T13:01:34;27.13;;;15.00;;
3267;SDS011;1646;52.450;13.326;2024-03-22T13:06:33;24.67;;;13.57;;
3267;SDS011;1646;52.450;13.326;2024-03-22T13:11:31;30.03;;;14.50;;
3267;SDS011;1646;52.450;13.326;2024-03-22T13:16:29;25.10;;;14.17;;
3267;SDS011;1646;52.450;13.326;2024-03-22T13:21:26;24.13;;;12.80;;
3267;SDS011;1646;52.450;13.326;2024-03-22T13:26:24;26.77;;;14.40;;
3267;SDS011;1646;52.450;13.326;2024-03-22T13:31:21;32.80;;;14.30;;
3267;SDS011;1646;52.450;13.326;2024-03-22T13:36:19;23.33;;;13.63;;
3267;SDS011;1646;52.450;13.326;2024-03-22T13:41:16;29.83;;;13.30;;
3267;SDS011;1646;52.450;13.326;2024-03-22T13:46:13;26.10;;;15.20;;
3267;SDS011;1646;52.450;13.326;2024-03-22T13:51:12;29.90;;;16.30;;
3267;SDS011;1646;52.450;13.326;2024-03-22T13:56:11;29.07;;;15.00;;
3267;SDS011;1646;52.450;13.326;2024-03-22T14:01:08;31.93;;;15.13;;
3267;SDS011;1646;52.450;13.326;2024-03-22T14:06:06;36.50;;;18.23;;
3267;SDS011;1646;52.450;13.326;2024-03-22T14:11:03;36.93;;;16.00;;
3267;SDS011;1646;52.450;13.326;2024-03-22T14:16:02;33.60;;;16.90;;
3267;SDS011;1646;52.450;13.326;2024-03-22T14:20:59;30.50;;;15.37;;
3267;SDS011;1646;52.450;13.326;2024-03-22T14:25:56;33.00;;;18.00;;
3267;SDS011;1646;52.450;13.326;2024-03-22T14:30:53;30.33;;;16.47;;
3267;SDS011;1646;52.450;13.326;2024-03-22T14:35:51;28.80;;;15.40;;
3267;SDS011;1646;52.450;13.326;2024-03-22T14:40:49;30.87;;;16.60;;
3267;SDS011;1646;52.450;13.326;2024-03-22T14:45:48;31.83;;;16.23;;
3267;SDS011;1646;52.450;13.326;2024-03-22T14:50:45;35.23;;;17.47;;
3267;SDS011;1646;52.450;13.326;2024-03-22T14:55:52;32.50;;;17.53;;
3267;SDS011;1646;52.450;13.326;2024-03-22T15:01:08;35.00;;;16.50;;
3267;SDS011;1646;52.450;13.326;2024-03-22T15:06:05;39.50;;;17.23;;
3267;SDS011;1646;52.450;13.326;2024-03-22T15:11:04;33.53;;;18.10;;
3267;SDS011;1646;52.450;13.326;2024-03-22T15:16:01;33.73;;;17.20;;
3267;SDS011;1646;52.450;13.326;2024-03-22T15:20:58;38.70;;;18.57;;
3267;SDS011;1646;52.450;13.326;2024-03-22T15:25:55;32.70;;;17.47;;
3267;SDS011;1646;52.450;13.326;2024-03-22T15:30:54;41.23;;;18.47;;
3267;SDS011;1646;52.450;13.326;2024-03-22T15:35:51;34.27;;;17.53;;
3267;SDS011;1646;52.450;13.326;2024-03-22T15:40:48;32.70;;;18.40;;
3267;SDS011;1646;52.450;13.326;2024-03-22T15:45:46;31.67;;;15.93;;
3267;SDS011;1646;52.450;13.326;2024-03-22T15:50:45;33.80;;;18.07;;
3267;SDS011;1646;52.450;13.326;2024-03-22T15:55:43;32.97;;;16.60;;
3267;SDS011;1646;52.450;13.326;2024-03-22T16:00:40;35.03;;;17.23;;
3267;SDS011;1646;52.450;13.326;2024-03-22T16:05:38;31.00;;;15.07;;
3267;SDS011;1646;52.450;13.326;2024-03-22T16:10:47;33.00;;;16.10;;
3267;SDS011;1646;52.450;13.326;2024-03-22T16:15:44;26.07;;;14.60;;
3267;SDS011;1646;52.450;13.326;2024-03-22T16:20:42;31.13;;;15.07;;
3267;SDS011;1646;52.450;13.326;2024-03-22T16:25:40;32.23;;;16.27;;
3267;SDS011;1646;52.450;13.326;2024-03-22T16:30:40;34.60;;;17.40;;
3267;SDS011;1646;52.450;13.326;2024-03-22T16:35:37;39.03;;;17.80;;
3267;SDS011;1646;52.450;13.326;2024-03-22T16:40:34;33.50;;;17.50;;
3267;SDS011;1646;52.450;13.326;2024-03-22T16:45:33;36.10;;;17.80;;
3267;SDS011;1646;52.450;13.326;2024-03-22T16:50:31;32.40;;;17.50;;
3267;SDS011;1646;52.450;13.326;2024-03-22T16:55:28;36.57;;;17.00;;
3267;SDS011;1646;52.450;13.326;2024-03-22T17:00:25;37.47;;;17.60;;
3267;SDS011;1646;52.450;13.326;2024-03-22T17:05:24;33.37;;;17.33;;
3267;SDS011;1646;52.450;13.326;2024-03-22T17:10:22;34.20;;;17.13;;
3267;SDS011;1646;52.450;13.326;2024-03-22T17:15:19;37.40;;;17.97;;
3267;SDS011;1646;52.450;13.326;2024-03-22T17:20:16;33.20;;;18.20;;
3267;SDS011;1646;52.450;13.326;2024-03-22T17:25:16;37.60;;;19.70;;
3267;SDS011;1646;52.450;13.326;2024-03-22T17:30:13;34.10;;;18.73;;
3267;SDS011;1646;52.450;13.326;2024-03-22T17:35:10;35.47;;;18.23;;
3267;SDS011;1646;52.450;13.326;2024-03-22T17:40:08;38.00;;;18.20;;
3267;SDS011;1646;52.450;13.326;2024-03-22T17:45:08;32.60;;;18.50;;
3267;SDS011;1646;52.450;13.326;2024-03-22T17:50:06;35.00;;;17.03;;
3267;SDS011;1646;52.450;13.326;2024-03-22T17:55:04;32.97;;;17.87;;
3267;SDS011;1646;52.450;13.326;2024-03-22T18:00:02;37.27;;;18.90;;
3267;SDS011;1646;52.450;13.326;2024-03-22T18:05:03;38.93;;;18.60;;
3267;SDS011;1646;52.450;13.326;2024-03-22T18:10:01;38.37;;;19.80;;
3267;SDS011;1646;52.450;13.326;2024-03-22T18:14:58;42.20;;;20.53;;
3267;SDS011;1646;52.450;13.326;2024-03-22T18:19:55;39.10;;;20.73;;
3267;SDS011;1646;52.450;13.326;2024-03-22T18:24:54;42.83;;;21.27;;
3267;SDS011;1646;52.450;13.326;2024-03-22T18:29:51;40.43;;;20.60;;
3267;SDS011;1646;52.450;13.326;2024-03-22T18:34:48;37.57;;;19.77;;
3267;SDS011;1646;52.450;13.326;2024-03-22T18:39:45;37.80;;;20.80;;
3267;SDS011;1646;52.450;13.326;2024-03-22T18:44:44;42.70;;;21.83;;
3267;SDS011;1646;52.450;13.326;2024-03-22T18:49:41;42.87;;;22.07;;
3267;SDS011;1646;52.450;13.326;2024-03-22T18:54:40;57.00;;;22.23;;
3267;SDS011;1646;52.450;13.326;2024-03-22T18:59:45;39.43;;;20.90;;
3267;SDS011;1646;52.450;13.326;2024-03-22T19:04:42;48.90;;;23.80;;
3267;SDS011;1646;52.450;13.326;2024-03-22T19:09:40;51.30;;;23.20;;
3267;SDS011;1646;52.450;13.326;2024-03-22T19:14:37;44.43;;;24.67;;
3267;SDS011;1646;52.450;13.326;2024-03-22T19:19:36;49.27;;;24.77;;
3267;SDS011;1646;52.450;13.326;2024-03-22T19:24:33;40.33;;;22.80;;
3267;SDS011;1646;52.450;13.326;2024-03-22T19:29:30;46.77;;;25.50;;
3267;SDS011;1646;52.450;13.326;2024-03-22T19:34:27;54.83;;;25.47;;
3267;SDS011;1646;52.450;13.326;2024-03-22T19:39:26;48.27;;;25.27;;
3267;SDS011;1646;52.450;13.326;2024-03-22T19:44:23;55.37;;;28.47;;
3267;SDS011;1646;52.450;13.326;2024-03-22T19:49:20;55.30;;;28.10;;
3267;SDS011;1646;52.450;13.326;2024-03-22T19:54:17;56.67;;;28.90;;
3267;SDS011;1646;52.450;13.326;2024-03-22T19:59:17;53.37;;;28.23;;
3267;SDS011;1646;52.450;13.326;2024-03-22T20:04:15;44.40;;;25.10;;
3267;SDS011;1646;52.450;13.326;2024-03-22T20:09:12;44.13;;;24.17;;
3267;SDS011;1646;52.450;13.326;2024-03-22T20:14:10;41.80;;;23.43;;
3267;SDS011;1646;52.450;13.326;2024-03-22T20:19:09;35.10;;;21.50;;
3267;SDS011;1646;52.450;13.326;2024-03-22T20:24:06;37.13;;;22.40;;
3267;SDS011;1646;52.450;13.326;2024-03-22T20:29:03;41.23;;;22.70;;
3267;SDS011;1646;52.450;13.326;2024-03-22T20:34:00;42.37;;;24.50;;
